createdAt,value
2018-07-10T00:00:46.190Z,17.1
2018-07-10T00:01:45.540Z,17.2
2018-07-10T00:02:44.871Z,17.1
2018-07-10T00:03:43.993Z,17.2
2018-07-10T00:04:43.622Z,17.2
2018-07-10T00:05:42.952Z,17.2
2018-07-10T00:06:42.287Z,17.2
2018-07-10T00:07:41.507Z,17.2
2018-07-10T00:08:40.846Z,17.2
2018-07-10T00:09:40.369Z,17.2
2018-07-10T00:11:39.088Z,17.2
2018-07-10T00:12:38.105Z,17.2
2018-07-10T00:13:37.848Z,17.2
2018-07-10T00:14:37.064Z,17.1
2018-07-10T00:15:36.297Z,17.1
2018-07-10T00:16:35.744Z,17.1
2018-07-10T00:17:34.983Z,17.1
2018-07-10T00:18:34.595Z,17.1
2018-07-10T00:19:33.926Z,17.1
2018-07-10T00:20:33.145Z,17.1
2018-07-10T00:22:31.765Z,17.1
2018-07-10T00:23:31.092Z,17.1
2018-07-10T00:24:30.325Z,17.1
2018-07-10T00:25:29.545Z,17.1
2018-07-10T00:26:29.280Z,17.1
2018-07-10T00:27:28.504Z,17.1
2018-07-10T00:27:59.144Z,17.1
2018-07-10T00:28:29.571Z,17.1
2018-07-10T00:29:27.384Z,17.1
2018-07-10T00:30:26.616Z,17.1
2018-07-10T00:31:25.944Z,17.1
2018-07-10T00:32:25.415Z,17.1
2018-07-10T00:33:24.865Z,17.1
2018-07-10T00:34:23.793Z,17.1
2018-07-10T00:35:23.028Z,17
2018-07-10T00:36:22.876Z,17.1
2018-07-10T00:37:22.124Z,17
2018-07-10T00:38:21.349Z,17
2018-07-10T00:39:20.681Z,17
2018-07-10T00:40:20.120Z,17
2018-07-10T00:41:19.557Z,17
2018-07-10T00:42:18.674Z,17
2018-07-10T00:43:18.011Z,17
2018-07-10T00:44:17.236Z,17
2018-07-10T00:45:16.869Z,17
2018-07-10T00:46:16.310Z,17
2018-07-10T00:47:15.426Z,17
2018-07-10T00:48:14.647Z,17
2018-07-10T00:49:13.966Z,16.9
2018-07-10T00:50:13.296Z,17
2018-07-10T00:51:12.523Z,16.9
2018-07-10T00:52:12.359Z,16.9
2018-07-10T00:53:11.690Z,16.9
2018-07-10T00:54:10.623Z,16.9
2018-07-10T00:55:10.068Z,16.9
2018-07-10T00:56:09.194Z,16.9
2018-07-10T00:57:08.632Z,16.9
2018-07-10T00:58:07.956Z,16.9
2018-07-10T00:59:07.426Z,16.9
2018-07-10T01:00:06.762Z,16.9
2018-07-10T01:01:06.097Z,16.9
2018-07-10T01:02:05.316Z,16.9
2018-07-10T01:03:04.842Z,16.9
2018-07-10T01:04:04.075Z,16.9
2018-07-10T01:04:34.296Z,16.9
2018-07-10T01:05:05.041Z,16.9
2018-07-10T01:05:35.173Z,16.9
2018-07-10T01:06:05.703Z,16.8
2018-07-10T01:07:02.303Z,16.9
2018-07-10T01:08:01.788Z,16.9
2018-07-10T01:09:00.912Z,16.9
2018-07-10T01:10:00.043Z,16.8
2018-07-10T01:10:59.480Z,16.8
2018-07-10T01:11:58.819Z,16.8
2018-07-10T01:12:58.256Z,16.8
2018-07-10T01:13:57.585Z,16.8
2018-07-10T01:14:56.799Z,16.8
2018-07-10T01:15:56.131Z,16.8
2018-07-10T01:16:55.459Z,16.8
2018-07-10T01:17:54.685Z,16.8
2018-07-10T01:18:54.174Z,16.8
2018-07-10T01:19:53.670Z,16.9
2018-07-10T01:20:52.789Z,16.8
2018-07-10T01:21:52.218Z,16.8
2018-07-10T01:23:51.229Z,16.9
2018-07-10T01:24:21.764Z,16.9
2018-07-10T01:25:50.095Z,16.8
2018-07-10T01:26:48.929Z,16.8
2018-07-10T01:27:48.369Z,16.8
2018-07-10T01:28:47.484Z,16.8
2018-07-10T01:29:46.809Z,16.8
2018-07-10T01:30:46.241Z,16.8
2018-07-10T01:31:45.457Z,16.8
2018-07-10T01:32:44.700Z,16.8
2018-07-10T01:33:44.385Z,16.8
2018-07-10T01:34:43.556Z,16.8
2018-07-10T01:35:42.885Z,16.8
2018-07-10T01:36:42.325Z,16.8
2018-07-10T01:37:41.544Z,16.8
2018-07-10T01:39:39.945Z,16.8
2018-07-10T01:40:39.578Z,16.8
2018-07-10T01:41:38.902Z,16.8
2018-07-10T01:42:38.534Z,16.8
2018-07-10T01:43:37.756Z,16.8
2018-07-10T01:44:37.194Z,16.7
2018-07-10T01:45:36.526Z,16.7
2018-07-10T01:46:35.852Z,16.7
2018-07-10T01:47:35.222Z,16.7
2018-07-10T01:48:34.661Z,16.7
2018-07-10T01:49:33.987Z,16.7
2018-07-10T01:50:33.105Z,16.7
2018-07-10T01:51:32.439Z,16.7
2018-07-10T01:53:31.153Z,16.7
2018-07-10T01:54:30.483Z,16.7
2018-07-10T01:55:29.812Z,16.7
2018-07-10T01:56:29.238Z,16.7
2018-07-10T01:57:28.186Z,16.7
2018-07-10T01:58:27.589Z,16.7
2018-07-10T01:59:26.919Z,16.7
2018-07-10T02:00:26.350Z,16.7
2018-07-10T02:01:25.588Z,16.7
2018-07-10T02:02:24.920Z,16.7
2018-07-10T02:03:24.180Z,16.7
2018-07-10T02:04:23.515Z,16.7
2018-07-10T02:05:23.143Z,16.7
2018-07-10T02:05:53.797Z,16.7
2018-07-10T02:06:24.439Z,16.7
2018-07-10T02:06:54.873Z,16.7
2018-07-10T02:08:20.994Z,16.7
2018-07-10T02:09:20.440Z,16.7
2018-07-10T02:10:19.779Z,16.7
2018-07-10T02:11:19.108Z,16.6
2018-07-10T02:12:18.440Z,16.7
2018-07-10T02:13:17.558Z,16.6
2018-07-10T02:14:16.788Z,16.6
2018-07-10T02:15:16.520Z,16.6
2018-07-10T02:16:15.845Z,16.6
2018-07-10T02:18:14.579Z,16.6
2018-07-10T02:19:14.022Z,16.6
2018-07-10T02:20:13.137Z,16.7
2018-07-10T02:21:12.354Z,16.6
2018-07-10T02:22:11.790Z,16.7
2018-07-10T02:23:10.916Z,16.6
2018-07-10T02:24:10.255Z,16.6
2018-07-10T02:25:09.694Z,16.6
2018-07-10T02:26:08.810Z,16.6
2018-07-10T02:27:08.246Z,16.6
2018-07-10T02:28:07.976Z,16.6
2018-07-10T02:29:07.302Z,16.6
2018-07-10T02:30:06.136Z,16.6
2018-07-10T02:31:05.762Z,16.5
2018-07-10T02:32:05.213Z,16.5
2018-07-10T02:33:04.599Z,16.5
2018-07-10T02:34:03.937Z,16.5
2018-07-10T02:35:03.281Z,16.5
2018-07-10T02:36:02.520Z,16.5
2018-07-10T02:37:01.860Z,16.5
2018-07-10T02:38:01.308Z,16.5
2018-07-10T02:39:00.427Z,16.5
2018-07-10T02:39:59.672Z,16.5
2018-07-10T02:40:59.117Z,16.5
2018-07-10T02:42:57.734Z,16.5
2018-07-10T02:43:28.380Z,16.5
2018-07-10T02:43:58.951Z,16.5
2018-07-10T02:44:56.071Z,16.5
2018-07-10T02:45:55.524Z,16.5
2018-07-10T02:46:54.756Z,16.5
2018-07-10T02:47:54.605Z,16.5
2018-07-10T02:48:53.936Z,16.5
2018-07-10T02:49:53.265Z,16.5
2018-07-10T02:50:52.487Z,16.4
2018-07-10T02:51:51.935Z,16.4
2018-07-10T02:52:50.656Z,16.4
2018-07-10T02:53:50.483Z,16.4
2018-07-10T02:54:49.916Z,16.3
2018-07-10T02:55:49.269Z,16.3
2018-07-10T02:56:48.487Z,16.3
2018-07-10T02:57:47.610Z,16.3
2018-07-10T02:58:46.938Z,16.3
2018-07-10T02:59:46.369Z,16.2
2018-07-10T03:00:45.801Z,16.1
2018-07-10T03:01:44.908Z,16
2018-07-10T03:02:44.121Z,15.8
2018-07-10T03:03:43.743Z,15.6
2018-07-10T03:04:42.979Z,15.5
2018-07-10T03:05:42.605Z,15.3
2018-07-10T03:06:41.546Z,15.2
2018-07-10T03:07:40.871Z,15.1
2018-07-10T03:08:39.991Z,14.9
2018-07-10T03:09:39.820Z,14.7
2018-07-10T03:10:38.945Z,14.5
2018-07-10T03:11:38.070Z,14.4
2018-07-10T03:12:37.806Z,14.2
2018-07-10T03:13:37.025Z,14
2018-07-10T03:14:36.347Z,14
2018-07-10T03:15:35.686Z,13.9
2018-07-10T03:16:34.696Z,13.8
2018-07-10T03:17:33.917Z,13.8
2018-07-10T03:18:33.539Z,13.7
2018-07-10T03:19:32.548Z,13.6
2018-07-10T03:20:31.997Z,13.6
2018-07-10T03:21:31.124Z,13.6
2018-07-10T03:22:30.497Z,13.6
2018-07-10T03:23:29.830Z,13.5
2018-07-10T03:24:29.283Z,13.5
2018-07-10T03:24:59.600Z,13.5
2018-07-10T03:25:29.923Z,13.4
2018-07-10T03:26:27.744Z,13.3
2018-07-10T03:26:58.273Z,13.3
2018-07-10T03:27:28.700Z,13.3
2018-07-10T03:28:26.407Z,13.3
2018-07-10T03:29:25.740Z,13.3
2018-07-10T03:30:24.965Z,13.2
2018-07-10T03:31:24.329Z,13.2
2018-07-10T03:32:23.765Z,13.2
2018-07-10T03:33:23.089Z,13.1
2018-07-10T03:34:22.424Z,13.1
2018-07-10T03:35:21.250Z,12.9
2018-07-10T03:36:20.816Z,12.9
2018-07-10T03:36:51.041Z,12.9
2018-07-10T03:37:21.567Z,12.9
2018-07-10T03:38:19.379Z,12.8
2018-07-10T03:39:18.694Z,12.8
2018-07-10T03:40:18.025Z,12.8
2018-07-10T03:42:16.522Z,12.7
2018-07-10T03:43:15.444Z,12.7
2018-07-10T03:43:45.977Z,12.7
2018-07-10T03:44:16.723Z,12.7
2018-07-10T03:45:14.136Z,12.7
2018-07-10T03:46:13.459Z,12.7
2018-07-10T03:47:12.784Z,12.7
2018-07-10T03:48:12.206Z,12.6
2018-07-10T03:49:11.133Z,12.6
2018-07-10T03:50:10.347Z,12.6
2018-07-10T03:51:09.561Z,12.6
2018-07-10T03:52:09.176Z,12.6
2018-07-10T03:53:08.498Z,12.7
2018-07-10T03:54:07.425Z,12.6
2018-07-10T03:55:06.742Z,12.6
2018-07-10T03:56:06.077Z,12.6
2018-07-10T03:57:05.296Z,12.6
2018-07-10T03:58:04.633Z,12.6
2018-07-10T03:59:03.967Z,12.6
2018-07-10T04:00:03.188Z,12.6
2018-07-10T04:01:02.306Z,12.5
2018-07-10T04:02:01.642Z,12.5
2018-07-10T04:03:00.971Z,12.5
2018-07-10T04:04:00.296Z,12.5
2018-07-10T04:04:59.545Z,12.5
2018-07-10T04:05:58.878Z,12.5
2018-07-10T04:06:58.207Z,12.5
2018-07-10T04:07:57.322Z,12.5
2018-07-10T04:08:56.594Z,12.5
2018-07-10T04:09:55.520Z,12.5
2018-07-10T04:10:54.864Z,12.5
2018-07-10T04:11:54.613Z,12.5
2018-07-10T04:12:53.742Z,12.5
2018-07-10T04:13:52.672Z,12.5
2018-07-10T04:14:51.897Z,12.4
2018-07-10T04:15:51.121Z,12.4
2018-07-10T04:16:50.453Z,12.4
2018-07-10T04:17:49.694Z,12.4
2018-07-10T04:18:49.093Z,12.4
2018-07-10T04:19:48.311Z,12.4
2018-07-10T04:21:46.913Z,12.4
2018-07-10T04:22:46.232Z,12.4
2018-07-10T04:23:45.560Z,12.3
2018-07-10T04:24:44.674Z,12.3
2018-07-10T04:25:43.890Z,12.3
2018-07-10T04:26:43.323Z,12.3
2018-07-10T04:27:42.146Z,12.3
2018-07-10T04:28:41.586Z,12.3
2018-07-10T04:29:40.797Z,12.3
2018-07-10T04:30:39.914Z,12.3
2018-07-10T04:31:39.422Z,12.3
2018-07-10T04:32:09.944Z,12.3
2018-07-10T04:32:40.586Z,12.3
2018-07-10T04:34:37.181Z,12.3
2018-07-10T04:35:36.396Z,12.3
2018-07-10T04:36:35.817Z,12.3
2018-07-10T04:37:34.638Z,12.3
2018-07-10T04:38:33.968Z,12.3
2018-07-10T04:39:33.288Z,12.3
2018-07-10T04:40:32.511Z,12.4
2018-07-10T04:41:31.736Z,12.4
2018-07-10T04:42:31.165Z,12.4
2018-07-10T04:43:30.386Z,12.4
2018-07-10T04:44:29.715Z,12.4
2018-07-10T04:45:29.043Z,12.4
2018-07-10T04:46:27.653Z,12.4
2018-07-10T04:47:27.484Z,12.3
2018-07-10T04:48:26.489Z,12.3
2018-07-10T04:49:26.364Z,12.4
2018-07-10T04:50:24.775Z,12.4
2018-07-10T04:51:24.100Z,12.4
2018-07-10T04:52:23.440Z,12.4
2018-07-10T04:53:22.766Z,12.4
2018-07-10T04:54:21.993Z,12.3
2018-07-10T04:55:21.432Z,12.3
2018-07-10T04:56:20.545Z,12.3
2018-07-10T04:57:19.765Z,12.2
2018-07-10T04:58:18.776Z,12.2
2018-07-10T04:59:18.200Z,12.2
2018-07-10T05:00:17.628Z,12.2
2018-07-10T05:00:47.768Z,12.2
2018-07-10T05:01:18.295Z,12.2
2018-07-10T05:01:49.047Z,12.2
2018-07-10T05:02:19.292Z,12.2
2018-07-10T05:02:49.536Z,12.2
2018-07-10T05:03:20.165Z,12.2
2018-07-10T05:03:50.292Z,12.2
2018-07-10T05:05:13.672Z,12.3
2018-07-10T05:06:13.041Z,12.2
2018-07-10T05:07:12.360Z,12.3
2018-07-10T05:08:11.574Z,12.3
2018-07-10T05:09:10.685Z,12.3
2018-07-10T05:10:10.110Z,12.3
2018-07-10T05:11:09.036Z,12.3
2018-07-10T05:12:08.535Z,12.3
2018-07-10T05:12:38.672Z,12.3
2018-07-10T05:13:09.207Z,12.3
2018-07-10T05:13:39.853Z,12.3
2018-07-10T05:14:10.273Z,12.3
2018-07-10T05:14:40.399Z,12.3
2018-07-10T05:16:05.445Z,12.3
2018-07-10T05:17:04.674Z,12.3
2018-07-10T05:18:03.793Z,12.3
2018-07-10T05:19:03.118Z,12.3
2018-07-10T05:20:02.455Z,12.3
2018-07-10T05:21:01.281Z,12.3
2018-07-10T05:22:00.509Z,12.3
2018-07-10T05:23:00.042Z,12.4
2018-07-10T05:23:59.334Z,12.4
2018-07-10T05:24:58.659Z,12.4
2018-07-10T05:25:57.581Z,12.4
2018-07-10T05:26:56.912Z,12.4
2018-07-10T05:27:56.246Z,12.3
2018-07-10T05:28:55.519Z,12.3
2018-07-10T05:29:54.760Z,12.3
2018-07-10T05:30:53.577Z,12.4
2018-07-10T05:31:53.301Z,12.4
2018-07-10T05:32:52.620Z,12.4
2018-07-10T05:33:51.446Z,12.5
2018-07-10T05:34:50.655Z,12.4
2018-07-10T05:35:49.972Z,12.4
2018-07-10T05:36:49.295Z,12.5
2018-07-10T05:37:48.727Z,12.5
2018-07-10T05:38:48.057Z,12.5
2018-07-10T05:39:46.873Z,12.5
2018-07-10T05:40:46.196Z,12.5
2018-07-10T05:41:45.524Z,12.5
2018-07-10T05:42:44.956Z,12.5
2018-07-10T05:43:15.094Z,12.5
2018-07-10T05:43:45.621Z,12.5
2018-07-10T05:44:43.544Z,12.5
2018-07-10T05:45:42.364Z,12.6
2018-07-10T05:46:41.688Z,12.6
2018-07-10T05:47:40.903Z,12.7
2018-07-10T05:48:40.124Z,12.7
2018-07-10T05:49:39.351Z,12.7
2018-07-10T05:50:38.569Z,12.7
2018-07-10T05:51:38.102Z,12.7
2018-07-10T05:52:36.916Z,12.7
2018-07-10T05:53:07.552Z,12.7
2018-07-10T05:53:38.179Z,12.7
2018-07-10T05:54:08.495Z,12.7
2018-07-10T05:55:34.902Z,12.6
2018-07-10T05:56:34.115Z,12.6
2018-07-10T05:57:33.360Z,12.6
2018-07-10T05:58:33.293Z,12.6
2018-07-10T06:00:31.340Z,12.6
2018-07-10T06:01:30.562Z,12.5
2018-07-10T06:02:29.499Z,12.5
2018-07-10T06:03:28.934Z,12.6
2018-07-10T06:04:28.130Z,12.6
2018-07-10T06:06:26.827Z,12.6
2018-07-10T06:07:26.153Z,12.7
2018-07-10T06:08:25.075Z,12.7
2018-07-10T06:09:24.414Z,12.7
2018-07-10T06:10:23.580Z,12.7
2018-07-10T06:11:22.743Z,12.7
2018-07-10T06:12:22.067Z,12.7
2018-07-10T06:13:21.188Z,12.6
2018-07-10T06:14:20.619Z,12.7
2018-07-10T06:15:19.954Z,12.7
2018-07-10T06:16:19.596Z,12.7
2018-07-10T06:17:18.178Z,12.8
2018-07-10T06:18:17.406Z,12.8
2018-07-10T06:19:16.522Z,12.9
2018-07-10T06:20:16.138Z,12.9
2018-07-10T06:21:15.461Z,13
2018-07-10T06:22:14.763Z,13
2018-07-10T06:23:13.688Z,13
2018-07-10T06:24:12.907Z,13
2018-07-10T06:25:12.122Z,13
2018-07-10T06:26:11.565Z,13
2018-07-10T06:27:11.005Z,13
2018-07-10T06:28:09.999Z,13
2018-07-10T06:29:09.018Z,13.1
2018-07-10T06:30:08.338Z,13
2018-07-10T06:31:07.662Z,13
2018-07-10T06:32:06.989Z,13.1
2018-07-10T06:33:06.384Z,13.1
2018-07-10T06:34:05.817Z,13.1
2018-07-10T06:35:05.032Z,13.1
2018-07-10T06:36:04.141Z,13.2
2018-07-10T06:37:03.141Z,13.2
2018-07-10T06:38:02.384Z,13.2
2018-07-10T06:39:01.712Z,13.2
2018-07-10T06:39:32.035Z,13.2
2018-07-10T06:40:02.565Z,13.1
2018-07-10T06:40:32.890Z,13.1
2018-07-10T06:41:59.784Z,13.2
2018-07-10T06:42:58.514Z,13.2
2018-07-10T06:43:57.852Z,13.2
2018-07-10T06:44:57.076Z,13.2
2018-07-10T06:45:56.297Z,13.2
2018-07-10T06:46:55.809Z,13.2
2018-07-10T06:47:55.024Z,13.2
2018-07-10T06:48:25.165Z,13.2
2018-07-10T06:48:55.919Z,13.1
2018-07-10T06:49:26.336Z,13.1
2018-07-10T06:49:56.878Z,13.1
2018-07-10T06:50:27.412Z,13.1
2018-07-10T06:50:57.835Z,13
2018-07-10T06:51:27.865Z,13
2018-07-10T06:52:52.307Z,13.1
2018-07-10T06:53:50.362Z,13.1
2018-07-10T06:54:49.795Z,13.1
2018-07-10T06:55:49.012Z,13.2
2018-07-10T06:56:48.239Z,13.1
2018-07-10T06:57:47.244Z,13.1
2018-07-10T06:58:46.963Z,13.1
2018-07-10T06:59:45.784Z,13.2
2018-07-10T07:00:45.594Z,13.3
2018-07-10T07:01:44.394Z,13.4
2018-07-10T07:02:43.716Z,13.5
2018-07-10T07:03:42.932Z,13.5
2018-07-10T07:04:42.253Z,13.6
2018-07-10T07:05:41.370Z,13.6
2018-07-10T07:06:40.698Z,13.6
2018-07-10T07:07:40.102Z,13.6
2018-07-10T07:08:39.267Z,13.6
2018-07-10T07:09:38.584Z,13.7
2018-07-10T07:10:37.911Z,13.7
2018-07-10T07:11:37.238Z,13.7
2018-07-10T07:12:36.169Z,13.6
2018-07-10T07:13:35.609Z,13.5
2018-07-10T07:14:34.718Z,13.6
2018-07-10T07:15:33.930Z,13.6
2018-07-10T07:16:33.258Z,13.6
2018-07-10T07:17:32.643Z,13.6
2018-07-10T07:18:31.754Z,13.7
2018-07-10T07:19:02.385Z,13.7
2018-07-10T07:19:32.919Z,13.7
2018-07-10T07:20:03.563Z,13.7
2018-07-10T07:20:34.195Z,13.7
2018-07-10T07:21:04.727Z,13.7
2018-07-10T07:22:29.225Z,13.7
2018-07-10T07:23:28.444Z,13.7
2018-07-10T07:24:27.369Z,13.7
2018-07-10T07:25:26.822Z,13.8
2018-07-10T07:26:26.155Z,13.8
2018-07-10T07:27:25.094Z,13.7
2018-07-10T07:28:24.313Z,13.7
2018-07-10T07:28:54.956Z,13.7
2018-07-10T07:29:25.227Z,13.7
2018-07-10T07:29:55.615Z,13.7
2018-07-10T07:30:25.756Z,13.7
2018-07-10T07:30:56.403Z,13.7
2018-07-10T07:31:27.034Z,13.7
2018-07-10T07:31:57.563Z,13.7
2018-07-10T07:32:28.204Z,13.8
2018-07-10T07:32:58.847Z,13.8
2018-07-10T07:34:19.922Z,13.8
2018-07-10T07:35:19.267Z,13.8
2018-07-10T07:36:18.384Z,13.9
2018-07-10T07:37:17.641Z,13.9
2018-07-10T07:38:17.368Z,14
2018-07-10T07:39:16.295Z,14
2018-07-10T07:41:15.166Z,14.1
2018-07-10T07:42:14.282Z,14.2
2018-07-10T07:43:13.439Z,14.2
2018-07-10T07:44:12.916Z,14.2
2018-07-10T07:45:12.184Z,14.3
2018-07-10T07:46:11.115Z,14.3
2018-07-10T07:47:10.547Z,14.2
2018-07-10T07:48:09.877Z,14.3
2018-07-10T07:49:09.198Z,14.3
2018-07-10T07:50:08.625Z,14.3
2018-07-10T07:51:07.450Z,14.4
2018-07-10T07:52:06.962Z,14.4
2018-07-10T07:53:06.075Z,14.3
2018-07-10T07:54:05.299Z,14.4
2018-07-10T07:55:04.743Z,14.4
2018-07-10T07:56:03.955Z,14.5
2018-07-10T07:57:03.071Z,14.5
2018-07-10T07:58:02.286Z,14.6
2018-07-10T07:59:01.730Z,14.6
2018-07-10T08:00:00.967Z,14.6
2018-07-10T08:01:00.357Z,14.6
2018-07-10T08:01:59.585Z,14.6
2018-07-10T08:02:58.700Z,14.4
2018-07-10T08:03:58.432Z,14.5
2018-07-10T08:04:57.648Z,14.4
2018-07-10T08:05:56.865Z,14.4
2018-07-10T08:06:56.080Z,14.4
2018-07-10T08:07:55.191Z,14.3
2018-07-10T08:08:54.304Z,14.3
2018-07-10T08:09:54.128Z,14.4
2018-07-10T08:10:53.026Z,14.4
2018-07-10T08:11:52.458Z,14.4
2018-07-10T08:12:23.221Z,14.4
2018-07-10T08:12:53.378Z,14.4
2018-07-10T08:13:51.090Z,14.4
2018-07-10T08:14:50.311Z,14.4
2018-07-10T08:15:49.638Z,14.4
2018-07-10T08:16:48.967Z,14.4
2018-07-10T08:17:48.186Z,14.4
2018-07-10T08:18:47.402Z,14.5
2018-07-10T08:19:46.840Z,14.5
2018-07-10T08:20:46.056Z,14.5
2018-07-10T08:21:45.382Z,14.5
2018-07-10T08:22:44.638Z,14.4
2018-07-10T08:23:43.854Z,14.5
2018-07-10T08:24:43.178Z,14.5
2018-07-10T08:25:42.610Z,14.5
2018-07-10T08:26:41.723Z,14.5
2018-07-10T08:27:12.142Z,14.5
2018-07-10T08:27:42.882Z,14.5
2018-07-10T08:28:13.135Z,14.5
2018-07-10T08:29:39.639Z,14.5
2018-07-10T08:30:38.464Z,14.5
2018-07-10T08:31:38.185Z,14.5
2018-07-10T08:32:37.508Z,14.5
2018-07-10T08:33:36.594Z,14.5
2018-07-10T08:34:35.708Z,14.6
2018-07-10T08:35:35.432Z,14.6
2018-07-10T08:36:34.252Z,14.5
2018-07-10T08:37:33.873Z,14.5
2018-07-10T08:38:33.200Z,14.5
2018-07-10T08:39:32.520Z,14.5
2018-07-10T08:40:31.643Z,14.5
2018-07-10T08:41:30.965Z,14.4
2018-07-10T08:42:30.287Z,14.4
2018-07-10T08:43:29.610Z,14.4
2018-07-10T08:44:28.726Z,14.4
2018-07-10T08:45:28.059Z,14.4
2018-07-10T08:46:27.287Z,14.4
2018-07-10T08:47:26.723Z,14.4
2018-07-10T08:48:25.954Z,14.4
2018-07-10T08:49:24.676Z,14.4
2018-07-10T08:50:24.608Z,14.4
2018-07-10T08:51:23.433Z,14.4
2018-07-10T08:52:22.652Z,14.4
2018-07-10T08:53:22.265Z,14.4
2018-07-10T08:54:21.531Z,14.4
2018-07-10T08:55:20.855Z,14.4
2018-07-10T08:56:19.989Z,14.4
2018-07-10T08:56:50.620Z,14.4
2018-07-10T08:57:21.151Z,14.3
2018-07-10T08:57:51.834Z,14.3
2018-07-10T08:59:17.831Z,14.3
2018-07-10T09:00:17.048Z,14.4
2018-07-10T09:01:16.277Z,14.4
2018-07-10T09:02:15.632Z,14.4
2018-07-10T09:03:15.056Z,14.4
2018-07-10T09:04:14.271Z,14.4
2018-07-10T09:05:13.595Z,14.4
2018-07-10T09:06:12.919Z,14.4
2018-07-10T09:06:43.444Z,14.4
2018-07-10T09:07:14.072Z,14.3
2018-07-10T09:07:44.817Z,14.3
2018-07-10T09:08:15.348Z,14.3
2018-07-10T09:08:45.992Z,14.3
2018-07-10T09:09:16.641Z,14.3
2018-07-10T09:09:47.070Z,14.3
2018-07-10T09:10:17.609Z,14.4
2018-07-10T09:10:48.138Z,14.4
2018-07-10T09:11:18.668Z,14.4
2018-07-10T09:11:48.797Z,14.4
2018-07-10T09:13:07.748Z,14.4
2018-07-10T09:14:07.079Z,14.4
2018-07-10T09:15:06.293Z,14.4
2018-07-10T09:16:05.623Z,14.4
2018-07-10T09:17:04.842Z,14.3
2018-07-10T09:18:04.065Z,14.3
2018-07-10T09:18:34.704Z,14.3
2018-07-10T09:20:02.914Z,14.3
2018-07-10T09:21:02.134Z,14.3
2018-07-10T09:22:01.357Z,14.4
2018-07-10T09:23:00.589Z,14.4
2018-07-10T09:23:59.700Z,14.4
2018-07-10T09:24:59.318Z,14.4
2018-07-10T09:25:58.648Z,14.4
2018-07-10T09:26:57.362Z,14.4
2018-07-10T09:27:56.981Z,14.4
2018-07-10T09:28:56.315Z,14.5
2018-07-10T09:29:55.556Z,14.5
2018-07-10T09:30:54.986Z,14.5
2018-07-10T09:31:54.262Z,14.5
2018-07-10T09:33:52.799Z,14.6
2018-07-10T09:34:52.248Z,14.6
2018-07-10T09:35:51.468Z,14.6
2018-07-10T09:36:50.789Z,14.6
2018-07-10T09:37:50.006Z,14.6
2018-07-10T09:38:48.951Z,14.7
2018-07-10T09:39:48.413Z,14.7
2018-07-10T09:40:47.505Z,14.8
2018-07-10T09:41:46.726Z,14.8
2018-07-10T09:42:46.562Z,14.8
2018-07-10T09:43:45.388Z,14.8
2018-07-10T09:44:45.012Z,14.8
2018-07-10T09:45:44.351Z,14.9
2018-07-10T09:46:43.684Z,14.8
2018-07-10T09:47:42.510Z,14.8
2018-07-10T09:48:41.945Z,14.8
2018-07-10T09:49:41.367Z,14.8
2018-07-10T09:50:11.685Z,14.8
2018-07-10T09:50:42.219Z,14.9
2018-07-10T09:51:12.754Z,14.9
2018-07-10T09:51:43.391Z,14.8
2018-07-10T09:52:39.082Z,14.9
2018-07-10T09:53:38.300Z,14.9
2018-07-10T09:55:36.816Z,15
2018-07-10T09:56:36.253Z,15
2018-07-10T09:57:35.472Z,15
2018-07-10T09:58:34.904Z,15
2018-07-10T09:59:34.332Z,15
2018-07-10T10:00:33.330Z,15
2018-07-10T10:01:03.537Z,15
2018-07-10T10:01:33.961Z,15
2018-07-10T10:02:31.878Z,15
2018-07-10T10:03:31.215Z,15
2018-07-10T10:04:30.545Z,15
2018-07-10T10:07:28.542Z,15
2018-07-10T10:08:28.065Z,15
2018-07-10T10:09:26.922Z,15
2018-07-10T10:10:26.254Z,15.1
2018-07-10T10:11:25.371Z,15.1
2018-07-10T10:12:24.693Z,15.1
2018-07-10T10:13:24.305Z,15.1
2018-07-10T10:14:23.626Z,15.1
2018-07-10T10:15:22.948Z,15.1
2018-07-10T10:17:21.160Z,15.2
2018-07-10T10:18:20.874Z,15.2
2018-07-10T10:19:19.796Z,15.2
2018-07-10T10:21:18.302Z,15.2
2018-07-10T10:22:17.625Z,15.2
2018-07-10T10:23:16.954Z,15.3
2018-07-10T10:24:16.392Z,15.2
2018-07-10T10:25:15.756Z,15.3
2018-07-10T10:26:15.097Z,15.3
2018-07-10T10:27:14.537Z,15.3
2018-07-10T10:28:13.377Z,15.3
2018-07-10T10:29:12.691Z,15.3
2018-07-10T10:30:12.260Z,15.3
2018-07-10T10:31:11.480Z,15.3
2018-07-10T10:32:10.812Z,15.2
2018-07-10T10:33:10.143Z,15.3
2018-07-10T10:34:09.361Z,15.3
2018-07-10T10:35:08.684Z,15.3
2018-07-10T10:36:07.912Z,15.3
2018-07-10T10:37:07.344Z,15.3
2018-07-10T10:38:06.774Z,15.3
2018-07-10T10:39:05.994Z,15.3
2018-07-10T10:40:05.217Z,15.4
2018-07-10T10:41:04.445Z,15.5
2018-07-10T10:42:03.671Z,15.6
2018-07-10T10:43:02.890Z,15.6
2018-07-10T10:44:02.396Z,15.6
2018-07-10T10:45:01.641Z,15.7
2018-07-10T10:45:32.181Z,15.7
2018-07-10T10:46:02.598Z,15.8
2018-07-10T10:46:33.236Z,15.8
2018-07-10T10:47:03.556Z,15.9
2018-07-10T10:47:34.187Z,15.9
2018-07-10T10:48:58.787Z,16
2018-07-10T10:49:58.112Z,16.1
2018-07-10T10:50:57.436Z,16.2
2018-07-10T10:51:56.662Z,16.3
2018-07-10T10:52:56.090Z,16.2
2018-07-10T10:53:55.344Z,16.2
2018-07-10T10:54:54.911Z,16.2
2018-07-10T10:55:25.342Z,16.2
2018-07-10T10:56:53.353Z,16.3
2018-07-10T10:57:23.994Z,16.3
2018-07-10T10:57:54.651Z,16.4
2018-07-10T10:58:25.174Z,16.4
2018-07-10T10:59:50.970Z,16.5
2018-07-10T11:00:50.362Z,16.6
2018-07-10T11:02:48.982Z,16.7
2018-07-10T11:03:48.707Z,16.8
2018-07-10T11:04:47.822Z,16.6
2018-07-10T11:05:47.053Z,16.7
2018-07-10T11:06:46.271Z,16.8
2018-07-10T11:07:45.595Z,16.9
2018-07-10T11:08:44.608Z,17
2018-07-10T11:09:44.436Z,17.1
2018-07-10T11:10:43.440Z,17.1
2018-07-10T11:11:43.058Z,17.1
2018-07-10T11:12:42.485Z,17.1
2018-07-10T11:13:41.444Z,17.1
2018-07-10T11:14:41.163Z,17.1
2018-07-10T11:15:40.384Z,17.1
2018-07-10T11:16:39.816Z,17.1
2018-07-10T11:17:39.024Z,17
2018-07-10T11:18:38.261Z,17
2018-07-10T11:19:37.593Z,16.9
2018-07-10T11:20:36.922Z,17
2018-07-10T11:21:36.354Z,16.9
2018-07-10T11:22:35.688Z,17
2018-07-10T11:23:35.118Z,16.8
2018-07-10T11:24:34.223Z,16.8
2018-07-10T11:25:33.554Z,16.8
2018-07-10T11:26:32.572Z,16.8
2018-07-10T11:27:32.292Z,16.8
2018-07-10T11:28:02.535Z,16.8
2018-07-10T11:28:33.169Z,16.7
2018-07-10T11:29:03.582Z,16.7
2018-07-10T11:29:33.787Z,16.6
2018-07-10T11:30:04.205Z,16.6
2018-07-10T11:31:29.381Z,16.6
2018-07-10T11:32:28.615Z,16.6
2018-07-10T11:33:27.850Z,16.7
2018-07-10T11:34:27.290Z,16.6
2018-07-10T11:35:26.731Z,16.7
2018-07-10T11:36:26.166Z,16.7
2018-07-10T11:37:25.385Z,16.7
2018-07-10T11:38:24.829Z,16.7
2018-07-10T11:38:55.364Z,16.7
2018-07-10T11:39:26.772Z,16.7
2018-07-10T11:39:56.423Z,16.7
2018-07-10T11:41:22.930Z,16.6
2018-07-10T11:42:22.139Z,16.6
2018-07-10T11:43:21.356Z,16.6
2018-07-10T11:44:20.802Z,16.6
2018-07-10T11:45:20.027Z,16.7
2018-07-10T11:46:19.353Z,16.7
2018-07-10T11:47:18.584Z,16.8
2018-07-10T11:48:18.197Z,16.8
2018-07-10T11:49:17.203Z,16.9
2018-07-10T11:50:16.523Z,16.9
2018-07-10T11:51:15.901Z,16.9
2018-07-10T11:52:15.331Z,16.9
2018-07-10T11:53:14.663Z,17
2018-07-10T11:55:13.376Z,17
2018-07-10T11:56:12.598Z,17
2018-07-10T11:57:11.714Z,17.1
2018-07-10T11:58:11.442Z,17.2
2018-07-10T11:59:10.877Z,17.2
2018-07-10T12:00:10.208Z,17.3
2018-07-10T12:01:09.537Z,17.5
2018-07-10T12:02:08.752Z,17.5
2018-07-10T12:04:07.489Z,17.7
2018-07-10T12:05:06.491Z,17.8
2018-07-10T12:06:06.121Z,17.9
2018-07-10T12:07:05.345Z,18
2018-07-10T12:08:04.565Z,18
2018-07-10T12:09:03.991Z,18.1
2018-07-10T12:10:03.608Z,18.1
2018-07-10T12:11:02.934Z,18.2
2018-07-10T12:12:02.153Z,18.3
2018-07-10T12:13:01.157Z,18.4
2018-07-10T12:14:00.662Z,18.4
2018-07-10T12:14:59.983Z,18.3
2018-07-10T12:15:59.320Z,18.3
2018-07-10T12:16:59.038Z,18.2
2018-07-10T12:17:58.362Z,18.1
2018-07-10T12:18:57.681Z,18.1
2018-07-10T12:19:57.111Z,18
2018-07-10T12:20:56.218Z,17.9
2018-07-10T12:21:55.332Z,17.9
2018-07-10T12:22:54.766Z,17.9
2018-07-10T12:23:54.378Z,17.9
2018-07-10T12:24:53.708Z,17.9
2018-07-10T12:25:23.738Z,17.9
2018-07-10T12:25:54.368Z,17.8
2018-07-10T12:26:25.002Z,17.8
2018-07-10T12:26:55.542Z,17.7
2018-07-10T12:27:51.936Z,17.7
2018-07-10T12:28:51.307Z,17.8
2018-07-10T12:29:50.627Z,17.7
2018-07-10T12:30:50.003Z,17.7
2018-07-10T12:31:48.945Z,17.7
2018-07-10T12:32:48.663Z,17.7
2018-07-10T12:33:48.083Z,17.8
2018-07-10T12:34:47.127Z,17.9
2018-07-10T12:35:17.481Z,17.9
2018-07-10T12:35:48.017Z,17.8
2018-07-10T12:36:18.765Z,17.8
2018-07-10T12:36:49.407Z,17.8
2018-07-10T12:37:20.045Z,17.8
2018-07-10T12:37:50.691Z,17.9
2018-07-10T12:38:20.937Z,17.9
2018-07-10T12:39:43.917Z,18.1
2018-07-10T12:40:43.432Z,18.1
2018-07-10T12:41:43.010Z,18.2
2018-07-10T12:42:41.845Z,18.5
2018-07-10T12:44:40.957Z,18.9
2018-07-10T12:45:40.295Z,18.8
2018-07-10T12:46:39.626Z,18.7
2018-07-10T12:47:38.634Z,18.7